Time;durP1;ratioP1;P1;durP2;ratioP2;P2;SDS_P1;SDS_P2;PMS_P1;PMS_P2;Temp;Humidity;BMP_temperature;BMP_pressure;BME280_temperature;BME280_humidity;BME280_pressure;Samples;Min_cycle;Max_cycle;Signal;HPM_P1;HPM_P2
2023/12/05 00:00:43;;;;;;;20.67;17.40;;;3.80;99.90;;;;;;4993882;28;20030;-87
2023/12/05 00:03:08;;;;;;;19.80;16.98;;;3.90;99.90;;;;;;4994067;28;20121;-87
2023/12/05 00:05:34;;;;;;;21.45;18.15;;;3.90;99.90;;;;;;4993561;28;20042;-88
2023/12/05 00:08:00;;;;;;;21.45;18.27;;;3.90;99.90;;;;;;4977757;28;20092;-87
2023/12/05 00:10:25;;;;;;;22.20;18.45;;;3.80;99.90;;;;;;4977828;28;20034;-87
2023/12/05 00:12:51;;;;;;;21.55;17.98;;;3.80;99.90;;;;;;4994407;28;20037;-87
2023/12/05 00:15:17;;;;;;;21.23;17.55;;;3.80;99.90;;;;;;4977671;28;20081;-88
2023/12/05 00:17:43;;;;;;;21.88;18.77;;;3.80;99.90;;;;;;4977536;28;20413;-87
2023/12/05 00:20:10;;;;;;;21.02;17.65;;;3.70;99.90;;;;;;4978173;28;20092;-87
2023/12/05 00:22:36;;;;;;;24.23;18.77;;;3.70;99.90;;;;;;5003033;28;20034;-87
2023/12/05 00:25:02;;;;;;;20.80;17.48;;;3.70;99.90;;;;;;5016688;28;20018;-88
2023/12/05 00:27:28;;;;;;;21.88;18.30;;;3.70;99.90;;;;;;5001844;28;20106;-85
2023/12/05 00:29:54;;;;;;;23.65;19.27;;;3.70;99.90;;;;;;5017991;28;20034;-87
2023/12/05 00:32:20;;;;;;;23.30;19.85;;;3.70;99.90;;;;;;5017187;28;20091;-88
2023/12/05 00:34:47;;;;;;;23.98;19.58;;;3.70;99.90;;;;;;5004443;28;20030;-87
2023/12/05 00:37:13;;;;;;;22.35;18.42;;;3.70;99.90;;;;;;4977989;28;20038;-87
2023/12/05 00:39:39;;;;;;;23.25;18.65;;;3.70;99.90;;;;;;4993413;28;20035;-87
2023/12/05 00:42:05;;;;;;;21.00;18.35;;;3.70;99.90;;;;;;4993937;28;20026;-87
2023/12/05 00:44:31;;;;;;;22.98;19.60;;;3.70;99.90;;;;;;4993940;28;20018;-87
2023/12/05 00:47:00;;;;;;;25.90;19.88;;;3.70;99.90;;;;;;4993714;28;20125;-87
2023/12/05 00:49:28;;;;;;;21.58;18.02;;;3.70;99.90;;;;;;4978278;28;20027;-85
2023/12/05 00:51:53;;;;;;;21.67;18.48;;;3.70;99.90;;;;;;4977030;28;20030;-87
2023/12/05 00:54:19;;;;;;;22.88;19.58;;;3.70;99.90;;;;;;4993695;28;20040;-87
2023/12/05 00:56:44;;;;;;;22.15;18.67;;;3.70;99.90;;;;;;4977104;28;20065;-87
2023/12/05 00:59:10;;;;;;;22.48;18.67;;;3.70;99.90;;;;;;4994780;28;20414;-85
2023/12/05 01:01:36;;;;;;;22.45;18.58;;;3.70;99.90;;;;;;4993460;28;20027;-87
2023/12/05 01:04:01;;;;;;;22.40;19.02;;;3.70;99.90;;;;;;4993437;28;20040;-87
2023/12/05 01:06:27;;;;;;;23.10;19.42;;;3.70;99.90;;;;;;4995095;28;20104;-85
2023/12/05 01:08:53;;;;;;;23.38;19.17;;;3.60;99.90;;;;;;4977399;28;20022;-87
2023/12/05 01:11:19;;;;;;;23.63;19.88;;;3.70;99.90;;;;;;4981038;28;20035;-87
2023/12/05 01:13:45;;;;;;;24.90;20.98;;;3.70;99.90;;;;;;4980868;28;20031;-87
2023/12/05 01:16:11;;;;;;;23.67;19.20;;;3.60;99.90;;;;;;4981432;28;20042;-86
2023/12/05 01:18:37;;;;;;;25.10;21.10;;;3.60;99.90;;;;;;4981635;28;20026;-87
2023/12/05 01:21:03;;;;;;;22.92;19.10;;;3.60;99.90;;;;;;4998503;28;20038;-87
2023/12/05 01:23:29;;;;;;;22.80;19.25;;;3.60;99.90;;;;;;4981704;28;20449;-86
2023/12/05 01:25:54;;;;;;;24.20;20.00;;;3.70;99.90;;;;;;4980893;28;20023;-86
2023/12/05 01:28:20;;;;;;;25.65;20.70;;;3.70;99.90;;;;;;4997318;28;20034;-87
2023/12/05 01:30:46;;;;;;;28.35;21.85;;;3.60;99.90;;;;;;4980634;28;20394;-86
2023/12/05 01:33:11;;;;;;;23.98;19.95;;;3.60;99.90;;;;;;4980800;28;20030;-86
2023/12/05 01:35:37;;;;;;;28.10;20.48;;;3.60;99.90;;;;;;4980283;28;20034;-86
2023/12/05 01:38:03;;;;;;;26.48;20.27;;;3.60;99.90;;;;;;4981090;28;20038;-87
2023/12/05 01:40:28;;;;;;;27.25;22.60;;;3.60;99.90;;;;;;5001620;28;20037;-87
2023/12/05 01:42:54;;;;;;;25.42;20.30;;;3.60;99.90;;;;;;5019167;28;20010;-87
2023/12/05 01:45:20;;;;;;;25.08;20.00;;;3.50;99.90;;;;;;5020483;28;20007;-85
2023/12/05 01:47:46;;;;;;;26.00;21.40;;;3.50;99.90;;;;;;5020215;28;20061;-82
2023/12/05 01:50:39;;;;;;;26.65;21.95;;;3.50;99.90;;;;;;5003518;28;20038;-84
2023/12/05 01:53:06;;;;;;;28.33;22.50;;;3.50;99.90;;;;;;4978799;28;20197;-84
2023/12/05 01:55:32;;;;;;;26.50;20.95;;;3.50;99.90;;;;;;4996417;28;20038;-83
2023/12/05 01:57:58;;;;;;;26.65;21.08;;;3.50;99.90;;;;;;4979772;28;20034;-83
2023/12/05 02:00:25;;;;;;;23.35;19.52;;;3.60;99.90;;;;;;4996108;28;20034;-84
2023/12/05 02:02:51;;;;;;;28.45;21.67;;;3.60;99.90;;;;;;4995991;28;20030;-83
2023/12/05 02:05:17;;;;;;;23.02;18.95;;;3.60;99.90;;;;;;4995695;28;20058;-83
2023/12/05 02:07:42;;;;;;;24.88;18.27;;;3.60;99.90;;;;;;4997173;28;20145;-84
2023/12/05 02:10:10;;;;;;;22.90;17.80;;;3.70;99.90;;;;;;4996223;28;20039;-84
2023/12/05 02:12:38;;;;;;;23.27;18.70;;;3.70;99.90;;;;;;4996891;28;20089;-82
2023/12/05 02:15:06;;;;;;;25.10;18.88;;;3.70;99.90;;;;;;4995923;28;20026;-84
2023/12/05 02:17:44;;;;;;;22.10;18.10;;;3.80;99.90;;;;;;4979511;28;20125;-84
2023/12/05 02:20:25;;;;;;;26.90;21.63;;;3.80;99.90;;;;;;4995526;28;20061;-84
2023/12/05 02:23:15;;;;;;;25.48;19.92;;;3.80;99.90;;;;;;4996519;28;20034;-84
2023/12/05 02:26:01;;;;;;;23.98;19.20;;;3.70;99.90;;;;;;4996588;28;20026;-83
2023/12/05 02:28:27;;;;;;;24.63;20.02;;;3.70;99.90;;;;;;4995514;28;20433;-83
2023/12/05 02:30:52;;;;;;;25.42;19.90;;;3.80;99.90;;;;;;4996471;28;20050;-84
2023/12/05 02:33:21;;;;;;;25.55;20.08;;;3.70;99.90;;;;;;4995286;28;20030;-84
2023/12/05 02:35:52;;;;;;;24.73;20.05;;;3.70;99.90;;;;;;4979511;28;20474;-84
2023/12/05 02:38:25;;;;;;;;;;;3.70;99.90;;;;;;4995912;28;20077;-84
2023/12/05 02:41:06;;;;;;;22.75;18.42;;;3.70;99.90;;;;;;4995078;28;20357;-84
2023/12/05 02:43:41;;;;;;;23.10;18.60;;;3.70;99.90;;;;;;4995424;28;20378;-83
2023/12/05 02:46:08;;;;;;;26.38;21.20;;;3.80;99.90;;;;;;4996581;28;20111;-84
2023/12/05 02:48:36;;;;;;;27.83;21.20;;;3.70;99.90;;;;;;4996242;28;20038;-84
2023/12/05 02:51:02;;;;;;;27.80;22.08;;;3.70;99.90;;;;;;4995439;28;20030;-83
2023/12/05 02:53:28;;;;;;;27.85;22.38;;;3.70;99.90;;;;;;4996685;28;20113;-84
2023/12/05 02:55:54;;;;;;;26.40;20.98;;;3.70;99.90;;;;;;4994704;28;20080;-84
2023/12/05 02:58:19;;;;;;;26.67;21.55;;;3.60;99.90;;;;;;4996390;28;20495;-84
2023/12/05 03:00:45;;;;;;;24.67;20.65;;;3.70;99.90;;;;;;4983552;28;20030;-82
2023/12/05 03:03:10;;;;;;;23.30;18.80;;;3.70;99.90;;;;;;5001215;28;20102;-84
2023/12/05 03:05:37;;;;;;;25.10;20.52;;;3.70;99.90;;;;;;5018134;28;20074;-84
2023/12/05 03:08:03;;;;;;;25.02;20.48;;;3.70;99.90;;;;;;5009430;28;20030;-84
2023/12/05 03:10:28;;;;;;;23.83;19.25;;;3.70;99.90;;;;;;4996851;28;20026;-84
2023/12/05 03:12:54;;;;;;;25.63;20.38;;;3.70;99.90;;;;;;4979214;28;20037;-84
2023/12/05 03:15:19;;;;;;;26.20;20.70;;;3.80;99.90;;;;;;4978689;28;20362;-84
2023/12/05 03:17:45;;;;;;;23.90;18.65;;;3.70;99.90;;;;;;4994187;28;20117;-84
2023/12/05 03:20:11;;;;;;;25.55;18.92;;;3.70;99.90;;;;;;4994021;28;20027;-84
2023/12/05 03:22:37;;;;;;;23.50;19.27;;;3.70;99.90;;;;;;4995685;28;20034;-84
2023/12/05 03:25:02;;;;;;;25.13;19.77;;;3.70;99.90;;;;;;4977843;28;20031;-84
2023/12/05 03:27:28;;;;;;;24.63;18.30;;;3.80;99.90;;;;;;4992824;28;20034;-84
2023/12/05 03:29:54;;;;;;;25.00;18.40;;;3.80;99.90;;;;;;4994090;28;20026;-84
2023/12/05 03:32:19;;;;;;;24.15;19.30;;;3.80;99.90;;;;;;4993357;28;20130;-84
2023/12/05 03:34:47;;;;;;;23.00;17.95;;;3.80;99.90;;;;;;4977349;28;20036;-83
2023/12/05 03:37:13;;;;;;;23.55;17.80;;;3.80;99.90;;;;;;4995055;28;20410;-84
2023/12/05 03:39:38;;;;;;;25.38;19.35;;;3.80;99.90;;;;;;4977947;28;20022;-84
2023/12/05 03:42:04;;;;;;;21.33;17.77;;;3.80;99.90;;;;;;4977853;28;20030;-84
2023/12/05 03:44:30;;;;;;;24.63;18.58;;;3.80;99.90;;;;;;4994164;28;20030;-84
2023/12/05 03:46:56;;;;;;;28.13;22.50;;;3.80;99.90;;;;;;4977935;28;20088;-84
2023/12/05 03:49:21;;;;;;;27.10;19.45;;;3.70;99.90;;;;;;4995049;28;20026;-84
2023/12/05 03:51:47;;;;;;;22.67;18.38;;;3.70;99.90;;;;;;4993655;28;20041;-82
2023/12/05 03:54:13;;;;;;;24.20;17.88;;;3.70;99.90;;;;;;4993770;28;20069;-84
2023/12/05 03:56:38;;;;;;;22.92;17.95;;;3.70;99.90;;;;;;4977672;28;20137;-84
2023/12/05 03:59:04;;;;;;;24.27;18.35;;;3.70;99.90;;;;;;4977536;28;20026;-84
2023/12/05 04:01:30;;;;;;;21.95;16.88;;;3.80;99.90;;;;;;4977545;28;20034;-84
2023/12/05 04:03:55;;;;;;;25.20;18.85;;;3.80;99.90;;;;;;4977115;28;20030;-84
2023/12/05 04:06:24;;;;;;;22.35;17.25;;;3.80;99.90;;;;;;4993775;28;20059;-84
2023/12/05 04:08:51;;;;;;;25.70;18.70;;;3.80;99.90;;;;;;4993698;28;20084;-83
2023/12/05 04:11:16;;;;;;;25.63;19.35;;;3.90;99.90;;;;;;4977762;28;20030;-84
2023/12/05 04:13:42;;;;;;;22.48;17.50;;;3.80;99.90;;;;;;4977959;28;20034;-84
2023/12/05 04:16:09;;;;;;;26.73;19.77;;;3.80;99.90;;;;;;4994551;28;20458;-84
2023/12/05 04:18:34;;;;;;;24.05;19.00;;;3.80;99.90;;;;;;4998113;28;20057;-84
2023/12/05 04:21:00;;;;;;;25.50;19.80;;;3.80;99.90;;;;;;5016482;28;20019;-82
2023/12/05 04:23:26;;;;;;;23.90;19.08;;;3.80;99.90;;;;;;5001370;28;20034;-84
2023/12/05 04:25:51;;;;;;;23.67;18.08;;;3.90;99.90;;;;;;5001194;28;20057;-82
2023/12/05 04:28:17;;;;;;;21.55;16.63;;;3.80;99.90;;;;;;5002886;28;20165;-84
2023/12/05 04:30:43;;;;;;;20.60;15.75;;;3.90;99.90;;;;;;4978435;28;20169;-84
2023/12/05 04:33:08;;;;;;;22.92;17.88;;;3.90;99.90;;;;;;4993457;28;20035;-84
2023/12/05 04:35:35;;;;;;;24.10;18.02;;;3.90;99.90;;;;;;4977523;28;20042;-83
2023/12/05 04:38:01;;;;;;;27.70;21.00;;;3.90;99.90;;;;;;4976907;28;20035;-84
2023/12/05 04:40:26;;;;;;;23.33;18.75;;;3.90;99.90;;;;;;4993389;28;20110;-84
2023/12/05 04:42:52;;;;;;;26.80;18.80;;;3.80;99.90;;;;;;4994458;28;20038;-83
2023/12/05 04:45:18;;;;;;;23.05;17.92;;;3.80;99.90;;;;;;4997363;28;20034;-83
2023/12/05 04:47:45;;;;;;;23.30;17.83;;;3.90;99.90;;;;;;4998294;28;20485;-84
2023/12/05 04:50:11;;;;;;;22.15;17.15;;;3.90;99.90;;;;;;4997124;28;20050;-83
2023/12/05 04:52:36;;;;;;;22.00;16.55;;;3.90;99.90;;;;;;4981003;28;20061;-83
2023/12/05 04:55:02;;;;;;;24.35;18.52;;;3.90;99.90;;;;;;4998021;28;20426;-84
2023/12/05 04:57:28;;;;;;;21.83;17.23;;;3.90;99.90;;;;;;4996823;28;20045;-84
2023/12/05 04:59:53;;;;;;;22.92;18.67;;;3.90;99.90;;;;;;4980359;28;20056;-84
2023/12/05 05:02:19;;;;;;;25.85;19.38;;;3.90;99.90;;;;;;4997164;28;20044;-84
2023/12/05 05:04:45;;;;;;;27.23;18.73;;;3.90;99.90;;;;;;4997132;28;20379;-84
2023/12/05 05:07:11;;;;;;;24.88;19.20;;;3.80;99.90;;;;;;4996527;28;20493;-84
2023/12/05 05:09:39;;;;;;;23.30;17.85;;;3.80;99.90;;;;;;4996711;28;20040;-84
2023/12/05 05:12:08;;;;;;;23.38;17.23;;;3.80;99.90;;;;;;4997073;28;20026;-84
2023/12/05 05:14:36;;;;;;;22.33;16.67;;;3.80;99.90;;;;;;4996552;28;20027;-84
2023/12/05 05:17:07;;;;;;;23.98;17.73;;;3.80;99.90;;;;;;4996511;28;20039;-84
2023/12/05 05:19:33;;;;;;;25.25;18.88;;;3.80;99.90;;;;;;4996585;28;20470;-85
2023/12/05 05:21:58;;;;;;;24.38;19.58;;;3.80;99.90;;;;;;4980107;28;20033;-83
2023/12/05 05:24:24;;;;;;;20.63;16.70;;;3.80;99.90;;;;;;4996876;28;20109;-85
2023/12/05 05:26:49;;;;;;;23.42;18.30;;;3.80;99.90;;;;;;4996291;28;20038;-84
2023/12/05 05:29:15;;;;;;;24.63;17.67;;;3.90;99.90;;;;;;4996508;28;20042;-84
2023/12/05 05:31:41;;;;;;;22.70;17.35;;;3.80;99.90;;;;;;4996087;28;20474;-84
2023/12/05 05:34:06;;;;;;;25.33;19.88;;;3.80;99.90;;;;;;4980388;28;20089;-84
2023/12/05 05:36:32;;;;;;;26.05;19.20;;;3.90;99.90;;;;;;4980551;28;20042;-84
2023/12/05 05:38:58;;;;;;;26.30;19.15;;;3.80;99.90;;;;;;5007979;28;20014;-84
2023/12/05 05:41:23;;;;;;;24.85;18.70;;;3.80;99.90;;;;;;5020191;28;20027;-84
2023/12/05 05:43:49;;;;;;;21.58;16.73;;;3.80;99.90;;;;;;5020599;28;20072;-84
2023/12/05 05:46:15;;;;;;;23.95;18.00;;;3.80;99.90;;;;;;5000313;28;20042;-84
2023/12/05 05:48:41;;;;;;;21.75;17.05;;;3.90;99.90;;;;;;4996921;28;20023;-85
2023/12/05 05:51:07;;;;;;;25.02;18.52;;;3.90;99.90;;;;;;4980273;28;20462;-85
2023/12/05 05:53:35;;;;;;;24.08;18.50;;;3.90;99.90;;;;;;4995507;28;20117;-84
2023/12/05 05:56:01;;;;;;;25.95;19.30;;;3.80;99.90;;;;;;4994515;28;20033;-81
2023/12/05 05:58:27;;;;;;;23.25;17.63;;;3.80;99.90;;;;;;4996948;28;20359;-84
2023/12/05 06:00:53;;;;;;;22.92;18.27;;;3.80;99.90;;;;;;4995694;28;20030;-84
2023/12/05 06:03:19;;;;;;;21.23;16.92;;;3.80;99.90;;;;;;4979463;28;20042;-85
2023/12/05 06:05:44;;;;;;;24.30;17.85;;;3.80;99.90;;;;;;4996717;28;20154;-84
2023/12/05 06:08:10;;;;;;;24.70;18.67;;;3.80;99.90;;;;;;4995830;28;20022;-85
2023/12/05 06:10:36;;;;;;;21.83;16.92;;;3.80;99.90;;;;;;4995801;28;20034;-84
2023/12/05 06:13:02;;;;;;;22.23;17.75;;;3.80;99.90;;;;;;4995340;28;20037;-84
2023/12/05 06:15:27;;;;;;;21.65;16.27;;;3.80;99.90;;;;;;4995447;28;20030;-84
2023/12/05 06:17:55;;;;;;;21.55;16.45;;;3.80;99.90;;;;;;4996754;28;20467;-83
2023/12/05 06:20:22;;;;;;;25.08;18.42;;;3.80;99.90;;;;;;4996552;28;20069;-85
2023/12/05 06:22:47;;;;;;;20.60;16.25;;;3.80;99.90;;;;;;4996228;28;20061;-85
2023/12/05 06:25:13;;;;;;;25.20;18.17;;;3.80;99.90;;;;;;4995131;28;20061;-84
2023/12/05 06:27:39;;;;;;;20.77;16.60;;;3.80;99.90;;;;;;4995017;28;20034;-85
2023/12/05 06:30:05;;;;;;;21.55;17.33;;;3.80;99.90;;;;;;4979092;28;20026;-82
2023/12/05 06:32:31;;;;;;;22.40;17.58;;;3.80;99.90;;;;;;4979530;28;20034;-88
2023/12/05 06:34:56;;;;;;;20.15;16.15;;;3.70;99.90;;;;;;4979529;28;20041;-85
2023/12/05 06:37:22;;;;;;;19.73;16.23;;;3.70;99.90;;;;;;4995319;28;20114;-86
2023/12/05 06:39:48;;;;;;;22.42;17.08;;;3.70;99.90;;;;;;4996438;28;20033;-86
2023/12/05 06:42:13;;;;;;;20.52;16.33;;;3.70;99.90;;;;;;4978736;28;20038;-85
2023/12/05 06:44:39;;;;;;;21.90;16.42;;;3.70;99.90;;;;;;4979083;28;20030;-86
2023/12/05 06:47:05;;;;;;;19.55;15.95;;;3.80;99.90;;;;;;4979018;28;20038;-86
2023/12/05 06:49:30;;;;;;;22.27;17.63;;;3.80;99.90;;;;;;4995176;28;20109;-86
2023/12/05 06:51:57;;;;;;;21.50;16.85;;;3.80;99.90;;;;;;4979165;28;20165;-85
2023/12/05 06:54:23;;;;;;;22.00;17.40;;;3.80;99.90;;;;;;4979932;28;20054;-87
2023/12/05 06:56:49;;;;;;;26.02;19.35;;;3.80;99.90;;;;;;5002119;28;20045;-86
2023/12/05 06:59:15;;;;;;;22.13;16.65;;;3.80;99.90;;;;;;5000231;28;20054;-86
2023/12/05 07:01:41;;;;;;;22.88;17.65;;;3.80;99.90;;;;;;5002473;28;20124;-85
2023/12/05 07:04:07;;;;;;;23.40;18.52;;;3.80;99.90;;;;;;5016884;28;20029;-86
2023/12/05 07:06:33;;;;;;;20.02;15.68;;;3.80;99.90;;;;;;5001866;28;20080;-85
2023/12/05 07:08:59;;;;;;;22.27;17.08;;;3.80;99.90;;;;;;4995676;28;20043;-86
2023/12/05 07:11:28;;;;;;;21.58;16.30;;;3.80;99.90;;;;;;4994605;28;20039;-86
2023/12/05 07:13:54;;;;;;;22.92;17.27;;;3.80;99.90;;;;;;4994515;28;20463;-86
2023/12/05 07:16:19;;;;;;;19.85;16.10;;;3.90;99.90;;;;;;4995484;28;20042;-86
2023/12/05 07:18:45;;;;;;;21.42;16.38;;;3.90;99.90;;;;;;4994602;28;20527;-86
2023/12/05 07:21:11;;;;;;;25.27;19.08;;;4.00;99.90;;;;;;4994089;28;20053;-82
2023/12/05 07:23:37;;;;;;;23.50;17.63;;;4.00;99.90;;;;;;4995442;28;20023;-85
2023/12/05 07:26:04;;;;;;;23.95;18.50;;;4.00;99.90;;;;;;4994156;28;20030;-85
2023/12/05 07:28:29;;;;;;;26.13;19.80;;;4.00;99.90;;;;;;4993968;28;20109;-86
2023/12/05 07:30:55;;;;;;;24.13;18.77;;;4.00;99.90;;;;;;4978493;28;20057;-88
2023/12/05 07:33:21;;;;;;;22.80;17.73;;;3.90;99.90;;;;;;4996055;28;20022;-86
2023/12/05 07:35:47;;;;;;;23.77;17.98;;;3.90;99.90;;;;;;4995171;28;20479;-85
2023/12/05 07:38:12;;;;;;;25.45;18.98;;;3.90;99.90;;;;;;4977609;28;20049;-84
2023/12/05 07:40:38;;;;;;;23.75;17.95;;;3.90;99.90;;;;;;4977785;28;20462;-85
2023/12/05 07:43:04;;;;;;;24.30;19.20;;;3.90;99.90;;;;;;4993894;28;20022;-85
2023/12/05 07:45:30;;;;;;;24.45;19.10;;;3.90;99.90;;;;;;4993607;28;20084;-86
2023/12/05 07:47:56;;;;;;;24.70;18.00;;;3.80;99.90;;;;;;4993921;28;20030;-85
2023/12/05 07:50:22;;;;;;;23.70;18.27;;;3.90;99.90;;;;;;4977629;28;20369;-85
2023/12/05 07:52:51;;;;;;;22.63;17.45;;;3.90;99.90;;;;;;4993712;28;20033;-86
2023/12/05 07:55:18;;;;;;;22.00;17.17;;;3.90;99.90;;;;;;4994932;28;20038;-85
2023/12/05 07:57:44;;;;;;;26.05;19.60;;;4.00;99.90;;;;;;4994932;28;20048;-86
2023/12/05 08:00:16;;;;;;;26.33;19.52;;;4.00;99.90;;;;;;4993661;28;20108;-86
2023/12/05 08:02:42;;;;;;;24.45;18.98;;;4.00;99.90;;;;;;4978314;28;20437;-85
2023/12/05 08:05:08;;;;;;;24.95;18.20;;;4.00;99.90;;;;;;4977475;28;20081;-86
2023/12/05 08:07:34;;;;;;;25.58;19.15;;;4.00;99.90;;;;;;4995327;28;20030;-86
2023/12/05 08:10:00;;;;;;;24.63;18.80;;;4.00;99.90;;;;;;4977723;28;20030;-86
2023/12/05 08:12:25;;;;;;;31.73;22.15;;;4.00;99.90;;;;;;4977879;28;20463;-87
2023/12/05 08:14:51;;;;;;;25.63;20.48;;;4.00;99.90;;;;;;4994204;28;20113;-86
2023/12/05 08:17:16;;;;;;;31.83;19.73;;;4.00;99.90;;;;;;4996899;28;20121;-86
2023/12/05 08:19:42;;;;;;;25.23;19.92;;;3.90;99.90;;;;;;5016413;28;20018;-86
2023/12/05 08:22:07;;;;;;;24.52;20.13;;;4.00;99.90;;;;;;5017970;28;20077;-87
2023/12/05 08:24:33;;;;;;;22.45;18.15;;;4.00;99.90;;;;;;5000449;28;20049;-87
2023/12/05 08:27:00;;;;;;;23.90;19.33;;;4.00;99.90;;;;;;4983203;28;20034;-87
2023/12/05 08:29:25;;;;;;;26.95;19.88;;;4.00;99.90;;;;;;4977782;28;20030;-86
2023/12/05 08:31:51;;;;;;;29.98;22.42;;;4.10;99.90;;;;;;4993661;28;20033;-86
2023/12/05 08:34:17;;;;;;;26.67;20.20;;;4.00;99.90;;;;;;4993903;28;20022;-86
2023/12/05 08:36:44;;;;;;;23.88;18.60;;;4.00;99.90;;;;;;4977357;28;20382;-86
2023/12/05 08:39:11;;;;;;;27.92;21.40;;;4.00;99.90;;;;;;4993663;28;20030;-87
2023/12/05 08:41:37;;;;;;;31.70;21.90;;;4.10;99.90;;;;;;4995086;28;20034;-85
2023/12/05 08:44:02;;;;;;;27.33;20.85;;;4.00;99.90;;;;;;4993371;28;20042;-86
2023/12/05 08:46:28;;;;;;;29.50;20.80;;;4.10;99.90;;;;;;4994664;28;20037;-86
2023/12/05 08:48:53;;;;;;;30.13;22.38;;;4.00;99.90;;;;;;4995566;28;20030;-87
2023/12/05 08:51:19;;;;;;;27.10;20.08;;;4.00;99.90;;;;;;4977487;28;20032;-87
2023/12/05 08:53:45;;;;;;;26.60;19.38;;;4.00;99.90;;;;;;4992655;28;20035;-85
2023/12/05 08:56:20;;;;;;;29.30;21.15;;;4.00;99.90;;;;;;4993407;28;20034;-87
2023/12/05 08:58:45;;;;;;;26.40;20.88;;;4.00;99.90;;;;;;4977007;28;20036;-86
2023/12/05 09:01:11;;;;;;;25.67;19.58;;;4.00;99.90;;;;;;4977222;28;20126;-86
2023/12/05 09:03:37;;;;;;;27.02;20.95;;;4.00;99.90;;;;;;4993713;28;20430;-85
2023/12/05 09:06:03;;;;;;;23.88;19.05;;;4.00;99.90;;;;;;4992896;28;20406;-85
2023/12/05 09:08:29;;;;;;;28.38;20.38;;;4.00;99.90;;;;;;4976867;28;20089;-86
2023/12/05 09:10:57;;;;;;;26.25;19.40;;;4.00;99.90;;;;;;4994046;28;20019;-86
2023/12/05 09:13:23;;;;;;;26.08;19.17;;;4.00;99.90;;;;;;4977080;28;20053;-86
2023/12/05 09:15:49;;;;;;;25.25;18.67;;;3.90;99.90;;;;;;4994360;28;20027;-86
2023/12/05 09:18:15;;;;;;;24.80;19.42;;;3.90;99.90;;;;;;4976621;28;20034;-86
2023/12/05 09:20:41;;;;;;;22.85;17.98;;;3.90;99.90;;;;;;4992761;28;20418;-86
2023/12/05 09:23:07;;;;;;;24.40;18.50;;;3.90;99.90;;;;;;4994300;28;20041;-86
2023/12/05 09:25:32;;;;;;;24.88;19.60;;;3.90;99.90;;;;;;4992680;28;20085;-86
2023/12/05 09:27:58;;;;;;;24.35;18.20;;;3.90;99.90;;;;;;4993254;28;20562;-86
2023/12/05 09:30:24;;;;;;;25.08;18.73;;;3.80;99.90;;;;;;4994079;28;20076;-86
2023/12/05 09:32:49;;;;;;;23.70;17.92;;;3.90;99.90;;;;;;4996590;28;20034;-86
2023/12/05 09:35:15;;;;;;;25.13;19.10;;;3.90;99.90;;;;;;4998624;28;20031;-86
2023/12/05 09:37:41;;;;;;;26.73;19.38;;;3.90;99.90;;;;;;5003105;28;20068;-84
2023/12/05 09:40:07;;;;;;;24.50;18.45;;;3.90;99.90;;;;;;5003967;28;20011;-86
2023/12/05 09:42:35;;;;;;;24.10;18.65;;;3.90;99.90;;;;;;5021237;28;20033;-83
2023/12/05 09:45:04;;;;;;;23.45;18.67;;;3.90;99.90;;;;;;5003611;28;20015;-85
2023/12/05 09:47:30;;;;;;;24.58;19.05;;;3.90;99.90;;;;;;5001925;28;20094;-86
2023/12/05 09:49:56;;;;;;;24.42;18.25;;;3.90;99.90;;;;;;4996787;28;20121;-85
2023/12/05 09:52:22;;;;;;;24.50;17.38;;;3.90;99.90;;;;;;4996524;28;20379;-85
2023/12/05 09:54:50;;;;;;;25.17;18.20;;;4.00;99.90;;;;;;4996153;28;20027;-86
2023/12/05 09:57:16;;;;;;;22.10;17.35;;;4.00;99.90;;;;;;4995962;28;20034;-86
2023/12/05 09:59:42;;;;;;;20.90;15.70;;;4.00;99.90;;;;;;4979481;28;20355;-85
2023/12/05 10:02:08;;;;;;;20.60;15.85;;;4.00;99.90;;;;;;4997069;28;20037;-86
2023/12/05 10:04:42;;;;;;;20.60;16.00;;;4.10;99.90;;;;;;4995608;28;20046;-86
2023/12/05 10:07:12;;;;;;;24.65;18.40;;;4.20;99.90;;;;;;4995728;28;20042;-86
2023/12/05 10:09:42;;;;;;;20.23;15.73;;;4.20;99.90;;;;;;4995662;28;20048;-86
2023/12/05 10:12:11;;;;;;;20.95;16.63;;;4.20;99.90;;;;;;4997222;28;20022;-86
2023/12/05 10:14:38;;;;;;;23.35;16.77;;;4.20;99.90;;;;;;4996910;28;20030;-85
2023/12/05 10:17:05;;;;;;;20.95;16.70;;;4.20;99.90;;;;;;4996820;28;20069;-85
2023/12/05 10:19:32;;;;;;;25.60;19.00;;;4.10;99.90;;;;;;4995774;28;20034;-86
2023/12/05 10:21:58;;;;;;;21.42;16.80;;;4.10;99.90;;;;;;4996568;28;20037;-87
2023/12/05 10:24:24;;;;;;;24.65;17.90;;;4.10;99.90;;;;;;4995267;28;20508;-85
2023/12/05 10:26:50;;;;;;;22.75;17.05;;;4.00;99.90;;;;;;4995211;28;20034;-85
2023/12/05 10:29:16;;;;;;;24.42;17.48;;;4.00;99.90;;;;;;4995253;28;20101;-85
2023/12/05 10:31:42;;;;;;;21.70;16.73;;;4.00;99.90;;;;;;4994938;28;20430;-85
2023/12/05 10:34:08;;;;;;;22.20;15.50;;;4.00;99.90;;;;;;4996423;28;20565;-86
2023/12/05 10:36:38;;;;;;;22.85;17.17;;;4.10;99.90;;;;;;4978693;28;20058;-85
2023/12/05 10:39:05;;;;;;;20.08;15.20;;;4.10;99.90;;;;;;4996308;28;20030;-85
2023/12/05 10:41:31;;;;;;;20.40;16.10;;;4.10;99.90;;;;;;4995015;28;20026;-86
2023/12/05 10:43:57;;;;;;;20.67;15.55;;;4.20;99.90;;;;;;4978338;28;20031;-85
2023/12/05 10:46:26;;;;;;;22.90;17.15;;;4.20;99.90;;;;;;4979028;28;20027;-87
2023/12/05 10:48:52;;;;;;;25.40;19.23;;;4.20;99.90;;;;;;4995204;28;20509;-85
2023/12/05 10:51:18;;;;;;;24.38;17.92;;;4.10;99.90;;;;;;4979323;28;20023;-86
2023/12/05 10:53:44;;;;;;;21.83;16.60;;;4.10;99.90;;;;;;4995511;28;20093;-86
2023/12/05 10:56:14;;;;;;;26.45;18.30;;;4.10;99.90;;;;;;4998801;28;20034;-85
2023/12/05 10:58:43;;;;;;;21.80;16.75;;;4.10;99.90;;;;;;5018900;28;20022;-82
2023/12/05 11:01:13;;;;;;;24.73;18.08;;;4.10;99.90;;;;;;5018788;28;20023;-85
2023/12/05 11:03:40;;;;;;;25.02;18.38;;;4.10;99.90;;;;;;5009506;28;20084;-86
2023/12/05 11:06:07;;;;;;;26.30;18.92;;;4.20;99.90;;;;;;4997135;28;20472;-86
2023/12/05 11:08:34;;;;;;;25.30;18.23;;;4.10;99.90;;;;;;4978773;28;20386;-86
2023/12/05 11:11:02;;;;;;;23.83;17.90;;;4.10;99.90;;;;;;4994808;28;20466;-85
2023/12/05 11:13:31;;;;;;;26.25;17.98;;;4.10;99.90;;;;;;4994491;28;20034;-85
2023/12/05 11:16:02;;;;;;;27.02;19.52;;;4.10;99.90;;;;;;4994202;28;20060;-86
2023/12/05 11:18:43;;;;;;;27.83;19.73;;;4.10;99.90;;;;;;4995340;28;20113;-85
2023/12/05 11:21:15;;;;;;;26.50;18.77;;;4.10;99.90;;;;;;4995700;28;20027;-85
2023/12/05 11:23:48;;;;;;;;;;;4.10;99.90;;;;;;4994797;28;20042;-85
2023/12/05 11:26:14;;;;;;;24.52;18.73;;;4.10;99.90;;;;;;4995594;28;19906;-85
2023/12/05 11:29:16;;;;;;;22.50;17.33;;;4.10;99.90;;;;;;4994004;28;20030;-84
2023/12/05 11:31:57;;;;;;;22.88;17.20;;;4.10;99.90;;;;;;4994094;28;20022;-85
2023/12/05 11:35:07;;;;;;;24.17;17.77;;;4.10;99.90;;;;;;4994154;28;20114;-86
2023/12/05 11:37:35;;;;;;;25.98;19.52;;;4.10;99.90;;;;;;4984942;28;20285;-86
2023/12/05 11:40:01;;;;;;;26.50;19.75;;;4.10;99.90;;;;;;4993907;28;20058;-86
2023/12/05 11:42:27;;;;;;;28.10;19.85;;;4.10;99.90;;;;;;4977542;28;20474;-84
2023/12/05 11:44:53;;;;;;;25.90;18.77;;;4.10;99.90;;;;;;4993459;28;20117;-84
2023/12/05 11:47:24;;;;;;;24.55;18.42;;;4.00;99.90;;;;;;4977513;28;20038;-84
2023/12/05 11:49:59;;;;;;;25.33;18.45;;;4.00;99.90;;;;;;4993476;28;20030;-85
2023/12/05 11:52:32;;;;;;;28.00;20.40;;;4.10;99.90;;;;;;4995005;28;20027;-84
2023/12/05 11:54:59;;;;;;;29.48;20.92;;;4.10;99.90;;;;;;4993903;28;20046;-85
2023/12/05 11:57:24;;;;;;;26.58;20.13;;;4.00;99.90;;;;;;4993931;28;20038;-85
2023/12/05 11:59:55;;;;;;;27.40;19.60;;;3.90;99.90;;;;;;4993397;28;20088;-85
2023/12/05 12:02:41;;;;;;;25.85;19.15;;;3.90;99.90;;;;;;4994917;28;20034;-84
2023/12/05 12:05:09;;;;;;;22.23;16.40;;;3.90;99.90;;;;;;4993566;28;20049;-87
2023/12/05 12:07:52;;;;;;;21.95;17.08;;;3.90;99.90;;;;;;4994637;28;20065;-86
2023/12/05 12:10:19;;;;;;;24.30;17.33;;;4.00;99.90;;;;;;4993627;28;20026;-84
2023/12/05 12:12:46;;;;;;;21.67;16.23;;;4.00;99.90;;;;;;4993664;28;20027;-83
2023/12/05 12:15:13;;;;;;;18.35;15.18;;;3.90;99.90;;;;;;4994196;28;20081;-84
2023/12/05 12:17:44;;;;;;;19.85;15.30;;;4.00;99.90;;;;;;4997054;28;20040;-88
2023/12/05 12:20:13;;;;;;;20.33;15.18;;;4.00;99.90;;;;;;5000580;28;20026;-85
2023/12/05 12:22:45;;;;;;;17.92;13.32;;;3.90;99.90;;;;;;5000709;28;20027;-85
2023/12/05 12:25:14;;;;;;;19.90;14.63;;;4.00;99.90;;;;;;4994580;28;20035;-85
2023/12/05 12:27:41;;;;;;;20.15;15.10;;;4.00;99.90;;;;;;4996731;28;20038;-84
2023/12/05 12:30:14;;;;;;;22.10;15.98;;;4.00;99.90;;;;;;4994021;28;20038;-84
2023/12/05 12:32:53;;;;;;;24.10;16.80;;;4.00;99.90;;;;;;4994543;28;20439;-85
2023/12/05 12:35:22;;;;;;;23.48;17.05;;;4.00;99.90;;;;;;4977201;28;20034;-86
2023/12/05 12:37:51;;;;;;;26.88;17.95;;;4.00;99.90;;;;;;4994341;28;20031;-83